createdAt,value
2023-05-12T00:01:03.296Z,15.84
2023-05-12T00:03:34.900Z,15.78
2023-05-12T00:06:06.283Z,15.68
2023-05-12T00:08:36.924Z,15.61
2023-05-12T00:11:08.942Z,15.63
2023-05-12T00:13:40.986Z,15.64
2023-05-12T00:16:11.769Z,15.54
2023-05-12T00:18:42.343Z,15.51
2023-05-12T00:21:13.002Z,15.49
2023-05-12T00:23:43.986Z,15.43
2023-05-12T00:26:15.173Z,15.48
2023-05-12T00:28:48.048Z,15.43
2023-05-12T00:31:18.789Z,15.45
2023-05-12T00:33:49.448Z,15.42
2023-05-12T00:36:20.084Z,15.34
2023-05-12T00:38:50.671Z,15.29
2023-05-12T00:41:21.691Z,15.26
2023-05-12T00:43:52.405Z,15.32
2023-05-12T00:46:23.327Z,15.28
2023-05-12T00:48:54.335Z,15.22
2023-05-12T00:51:26.350Z,15.22
2023-05-12T00:53:58.998Z,15.10
2023-05-12T00:56:29.900Z,15.06
2023-05-12T00:59:00.551Z,14.95
2023-05-12T01:01:31.934Z,14.98
2023-05-12T01:04:03.843Z,14.85
2023-05-12T01:06:43.044Z,14.82
2023-05-12T01:09:15.067Z,14.73
2023-05-12T01:11:45.632Z,14.72
2023-05-12T01:14:16.184Z,14.69
2023-05-12T01:16:55.269Z,14.72
2023-05-12T01:19:43.381Z,14.71
2023-05-12T01:22:14.677Z,14.66
2023-05-12T01:24:53.931Z,14.70
2023-05-12T01:27:27.356Z,14.68
2023-05-12T01:30:02.673Z,14.62
2023-05-12T01:32:33.180Z,14.64
2023-05-12T01:35:04.002Z,14.72
2023-05-12T01:37:34.887Z,14.72
2023-05-12T01:40:06.305Z,14.70
2023-05-12T01:42:38.763Z,14.64
2023-05-12T01:45:10.423Z,14.68
2023-05-12T01:47:41.077Z,14.64
2023-05-12T01:50:12.133Z,14.59
2023-05-12T01:52:44.337Z,14.54
2023-05-12T01:55:14.981Z,14.47
2023-05-12T01:57:45.885Z,14.47
2023-05-12T02:00:17.053Z,14.47
2023-05-12T02:02:47.789Z,14.46
2023-05-12T02:05:19.999Z,14.39
2023-05-12T02:07:51.505Z,14.28
2023-05-12T02:10:22.285Z,14.27
2023-05-12T02:12:53.074Z,14.28
2023-05-12T02:15:25.560Z,14.20
2023-05-12T02:17:58.034Z,14.26
2023-05-12T02:20:29.754Z,14.22
2023-05-12T02:23:03.037Z,14.16
2023-05-12T02:25:34.253Z,14.16
2023-05-12T02:28:05.005Z,14.14
2023-05-12T02:30:42.120Z,14.10
2023-05-12T02:33:13.947Z,14.06
2023-05-12T02:35:46.548Z,13.94
2023-05-12T02:38:17.223Z,14.00
2023-05-12T02:40:51.656Z,13.89
2023-05-12T02:43:22.388Z,13.82
2023-05-12T02:45:54.925Z,13.75
2023-05-12T02:48:25.655Z,13.73
2023-05-12T02:50:56.193Z,13.62
2023-05-12T02:53:27.509Z,13.56
2023-05-12T02:55:58.183Z,13.47
2023-05-12T02:58:28.886Z,13.42
2023-05-12T03:01:09.349Z,13.42
2023-05-12T03:03:32.032Z,13.26
2023-05-12T03:06:04.620Z,13.23
2023-05-12T03:08:36.224Z,13.16
2023-05-12T03:11:06.959Z,13.17
2023-05-12T03:13:39.125Z,13.09
2023-05-12T03:16:09.844Z,13.08
2023-05-12T03:18:40.838Z,13.05
2023-05-12T03:21:11.702Z,13.04
2023-05-12T03:23:42.567Z,13.02
2023-05-12T03:26:13.157Z,13.02
2023-05-12T03:28:43.696Z,12.94
2023-05-12T03:31:14.313Z,12.97
2023-05-12T03:33:46.600Z,12.91
2023-05-12T03:36:17.296Z,12.89
2023-05-12T03:38:48.005Z,12.96
2023-05-12T03:41:18.862Z,13.00
2023-05-12T03:43:49.717Z,12.88
2023-05-12T03:46:20.892Z,12.87
2023-05-12T03:48:51.617Z,12.82
2023-05-12T03:51:22.182Z,12.86
2023-05-12T03:53:54.373Z,12.87
2023-05-12T03:56:26.362Z,12.88
2023-05-12T03:58:57.727Z,12.99
2023-05-12T04:01:31.492Z,12.88
2023-05-12T04:04:02.336Z,12.86
2023-05-12T04:06:33.142Z,12.85
2023-05-12T04:09:03.979Z,12.82
2023-05-12T04:11:34.452Z,12.83
2023-05-12T04:14:05.023Z,12.86
2023-05-12T04:16:36.954Z,12.78
2023-05-12T04:19:07.813Z,12.80
2023-05-12T04:21:38.697Z,12.81
2023-05-12T04:24:10.157Z,12.86
2023-05-12T04:26:43.304Z,12.89
2023-05-12T04:29:17.664Z,12.95
2023-05-12T04:31:48.240Z,13.00
2023-05-12T04:34:19.619Z,13.08
2023-05-12T04:36:50.189Z,13.20
2023-05-12T04:39:23.630Z,13.33
2023-05-12T04:41:54.340Z,13.43
2023-05-12T04:44:24.909Z,13.43
2023-05-12T04:46:56.574Z,13.48
2023-05-12T04:49:27.530Z,13.56
2023-05-12T04:51:58.371Z,13.75
2023-05-12T04:54:30.352Z,13.67
2023-05-12T04:57:00.948Z,13.64
2023-05-12T04:59:31.847Z,13.72
2023-05-12T05:02:02.590Z,13.70
2023-05-12T05:04:34.177Z,13.65
2023-05-12T05:07:05.008Z,13.68
2023-05-12T05:09:38.740Z,13.59
2023-05-12T05:12:09.542Z,13.86
2023-05-12T05:14:40.187Z,14.49
2023-05-12T05:17:12.524Z,15.83
2023-05-12T05:19:54.937Z,16.02
2023-05-12T05:22:16.848Z,16.59
2023-05-12T05:24:47.512Z,15.81
2023-05-12T05:27:20.033Z,15.73
2023-05-12T05:29:53.481Z,15.02
2023-05-12T05:32:26.601Z,14.97
2023-05-12T05:34:56.920Z,16.15
2023-05-12T05:37:28.189Z,17.60
2023-05-12T05:39:59.178Z,19.10
2023-05-12T05:42:30.020Z,19.76
2023-05-12T05:45:01.041Z,20.07
2023-05-12T05:47:34.393Z,19.27
2023-05-12T05:50:06.320Z,20.22
2023-05-12T05:52:36.858Z,20.17
2023-05-12T05:55:08.060Z,19.88
2023-05-12T05:57:39.060Z,20.73
2023-05-12T06:00:10.628Z,21.75
2023-05-12T06:02:43.224Z,21.92
2023-05-12T06:05:14.537Z,21.93
2023-05-12T06:07:45.435Z,20.60
2023-05-12T06:10:16.169Z,21.86
2023-05-12T06:12:46.839Z,23.53
2023-05-12T06:15:17.709Z,23.56
2023-05-12T06:17:50.189Z,22.66
2023-05-12T06:20:22.734Z,23.04
2023-05-12T06:22:53.480Z,22.51
2023-05-12T06:25:24.152Z,23.16
2023-05-12T06:27:54.765Z,22.63
2023-05-12T06:30:25.604Z,22.92
2023-05-12T06:32:57.885Z,22.68
2023-05-12T06:35:30.152Z,23.16
2023-05-12T06:38:00.923Z,22.60
2023-05-12T06:40:33.066Z,22.83
2023-05-12T06:43:04.773Z,21.36
2023-05-12T06:45:36.643Z,19.69
2023-05-12T06:48:09.601Z,18.84
2023-05-12T06:50:40.336Z,18.19
2023-05-12T06:53:11.008Z,17.60
2023-05-12T06:55:43.277Z,17.46
2023-05-12T06:58:14.083Z,17.33
2023-05-12T07:00:44.694Z,17.44
2023-05-12T07:03:15.465Z,17.39
2023-05-12T07:05:47.379Z,17.36
2023-05-12T07:08:18.337Z,17.48
2023-05-12T07:10:49.045Z,17.44
2023-05-12T07:13:20.289Z,17.54
2023-05-12T07:15:51.128Z,17.55
2023-05-12T07:18:21.822Z,17.56
2023-05-12T07:20:53.349Z,17.66
2023-05-12T07:23:24.109Z,17.48
2023-05-12T07:25:54.576Z,17.64
2023-05-12T07:28:25.389Z,17.84
2023-05-12T07:30:56.027Z,17.67
2023-05-12T07:33:26.736Z,17.80
2023-05-12T07:35:57.539Z,17.92
2023-05-12T07:38:30.078Z,18.14
2023-05-12T07:41:02.086Z,18.33
2023-05-12T07:43:34.421Z,18.01
2023-05-12T07:46:05.284Z,17.97
2023-05-12T07:48:37.587Z,18.08
2023-05-12T07:51:11.221Z,18.30
2023-05-12T07:53:42.091Z,18.26
2023-05-12T07:56:17.795Z,18.18
2023-05-12T07:58:48.636Z,18.30
2023-05-12T08:01:20.907Z,18.41
2023-05-12T08:03:52.215Z,18.54
2023-05-12T08:06:25.037Z,18.48
2023-05-12T08:08:56.863Z,18.51
2023-05-12T08:11:27.756Z,18.60
2023-05-12T08:13:58.544Z,18.80
2023-05-12T08:16:29.365Z,18.94
2023-05-12T08:19:00.393Z,19.02
2023-05-12T08:21:33.165Z,18.98
2023-05-12T08:24:05.064Z,19.19
2023-05-12T08:26:35.781Z,19.18
2023-05-12T08:29:06.990Z,19.37
2023-05-12T08:31:40.430Z,19.35
2023-05-12T08:34:11.738Z,19.05
2023-05-12T08:36:43.795Z,19.07
2023-05-12T08:39:15.987Z,19.53
2023-05-12T08:41:52.658Z,19.18
2023-05-12T08:44:27.233Z,19.46
2023-05-12T08:46:59.204Z,19.63
2023-05-12T08:49:32.715Z,19.51
2023-05-12T08:52:04.226Z,19.54
2023-05-12T08:54:45.578Z,19.54
2023-05-12T08:57:11.002Z,19.59
2023-05-12T08:59:44.834Z,19.63
2023-05-12T09:02:18.265Z,19.62
2023-05-12T09:04:49.042Z,19.84
2023-05-12T09:07:20.872Z,19.79
2023-05-12T09:09:57.301Z,19.78
2023-05-12T09:12:30.884Z,19.74
2023-05-12T09:15:07.875Z,19.80
2023-05-12T09:17:38.779Z,19.87
2023-05-12T09:20:20.593Z,19.75
2023-05-12T09:22:42.630Z,19.90
2023-05-12T09:25:19.219Z,20.01
2023-05-12T09:27:54.613Z,19.80
2023-05-12T09:30:34.464Z,20.06
2023-05-12T09:33:10.640Z,20.08
2023-05-12T09:35:46.368Z,20.01
2023-05-12T09:38:17.063Z,20.10
2023-05-12T09:40:47.640Z,20.16
2023-05-12T09:43:18.395Z,20.12
2023-05-12T09:45:50.780Z,19.96
2023-05-12T09:48:22.255Z,20.16
2023-05-12T09:50:53.627Z,20.18
2023-05-12T09:53:24.171Z,20.32
2023-05-12T09:55:54.823Z,20.44
2023-05-12T09:58:27.942Z,20.20
2023-05-12T10:01:20.875Z,19.96
2023-05-12T10:03:33.955Z,20.01
2023-05-12T10:06:07.816Z,20.27
2023-05-12T10:08:44.686Z,20.30
2023-05-12T10:11:16.194Z,20.28
2023-05-12T10:13:47.383Z,20.57
2023-05-12T10:16:18.585Z,20.48
2023-05-12T10:18:51.061Z,20.18
2023-05-12T10:21:24.157Z,20.10
2023-05-12T10:23:59.783Z,20.30
2023-05-12T10:26:33.117Z,20.44
2023-05-12T10:29:04.011Z,20.54
2023-05-12T10:31:36.294Z,20.62
2023-05-12T10:34:07.417Z,20.86
2023-05-12T10:36:53.560Z,20.52
2023-05-12T10:39:27.240Z,20.25
2023-05-12T10:42:11.174Z,20.49
2023-05-12T10:44:52.724Z,20.79
2023-05-12T10:47:29.608Z,20.67
2023-05-12T10:50:01.101Z,20.56
2023-05-12T10:52:34.677Z,20.66
2023-05-12T10:55:06.224Z,20.59
2023-05-12T10:57:38.522Z,20.52
2023-05-12T11:00:13.902Z,20.85
2023-05-12T11:02:52.977Z,21.04
2023-05-12T11:05:29.410Z,21.04
2023-05-12T11:08:02.470Z,21.14
2023-05-12T11:10:35.674Z,21.24
2023-05-12T11:13:06.438Z,20.49
2023-05-12T11:15:38.391Z,20.54
2023-05-12T11:18:09.399Z,20.60
2023-05-12T11:20:39.971Z,20.85
2023-05-12T11:23:10.623Z,20.88
2023-05-12T11:25:43.461Z,21.24
2023-05-12T11:28:13.449Z,20.81
2023-05-12T11:30:54.694Z,20.64
2023-05-12T11:33:24.924Z,20.50
2023-05-12T11:35:55.804Z,20.51
2023-05-12T11:38:28.497Z,20.99
2023-05-12T11:40:59.290Z,21.15
2023-05-12T11:43:30.426Z,21.18
2023-05-12T11:46:01.487Z,21.08
2023-05-12T11:48:37.529Z,21.04
2023-05-12T11:51:09.451Z,20.84
2023-05-12T11:53:41.679Z,21.07
2023-05-12T11:56:15.320Z,21.35
2023-05-12T11:58:57.604Z,21.40
2023-05-12T12:01:28.409Z,21.47
2023-05-12T12:03:59.388Z,21.34
2023-05-12T12:06:30.064Z,21.38
2023-05-12T12:09:02.113Z,21.53
2023-05-12T12:11:34.605Z,21.40
2023-05-12T12:14:05.688Z,21.38
2023-05-12T12:16:36.444Z,21.26
2023-05-12T12:19:08.822Z,20.96
2023-05-12T12:21:41.420Z,21.20
2023-05-12T12:24:12.036Z,21.24
2023-05-12T12:26:42.814Z,21.24
2023-05-12T12:29:13.573Z,21.23
2023-05-12T12:31:44.497Z,21.65
2023-05-12T12:34:16.423Z,21.36
2023-05-12T12:36:48.135Z,21.32
2023-05-12T12:39:19.929Z,21.16
2023-05-12T12:41:50.912Z,21.34
2023-05-12T12:44:22.456Z,21.24
2023-05-12T12:46:54.547Z,21.22
2023-05-12T12:49:25.080Z,21.46
2023-05-12T12:51:55.836Z,21.70
2023-05-12T12:54:27.559Z,21.84
2023-05-12T12:56:58.461Z,22.09
2023-05-12T12:59:29.024Z,21.86
2023-05-12T13:02:00.108Z,22.07
2023-05-12T13:04:31.274Z,21.88
2023-05-12T13:07:02.184Z,21.81
2023-05-12T13:09:34.076Z,21.61
2023-05-12T13:12:06.273Z,21.64
2023-05-12T13:14:36.873Z,21.80
2023-05-12T13:17:08.127Z,22.05
2023-05-12T13:19:40.139Z,21.58
2023-05-12T13:22:11.111Z,21.46
2023-05-12T13:24:43.212Z,21.48
2023-05-12T13:27:13.858Z,21.79
2023-05-12T13:29:46.172Z,21.74
2023-05-12T13:32:17.427Z,21.48
2023-05-12T13:34:48.076Z,21.41
2023-05-12T13:37:18.906Z,21.50
2023-05-12T13:39:49.614Z,21.49
2023-05-12T13:42:22.176Z,21.49
2023-05-12T13:44:52.717Z,21.72
2023-05-12T13:47:23.385Z,21.86
2023-05-12T13:49:58.848Z,21.86
2023-05-12T13:52:27.971Z,21.88
2023-05-12T13:54:58.728Z,21.48
2023-05-12T13:57:29.456Z,21.59
2023-05-12T14:00:00.034Z,21.54
2023-05-12T14:02:30.843Z,21.28
2023-05-12T14:05:01.538Z,21.43
2023-05-12T14:07:32.222Z,21.47
2023-05-12T14:10:02.956Z,21.70
2023-05-12T14:12:34.237Z,21.86
2023-05-12T14:15:32.220Z,21.38
2023-05-12T14:17:38.797Z,21.39
2023-05-12T14:20:11.598Z,21.36
2023-05-12T14:22:43.002Z,21.57
2023-05-12T14:25:13.826Z,21.87
2023-05-12T14:27:46.260Z,21.94
2023-05-12T14:30:18.044Z,21.94
2023-05-12T14:32:48.778Z,22.04
2023-05-12T14:35:20.531Z,22.06
2023-05-12T14:37:51.224Z,21.61
2023-05-12T14:40:22.811Z,21.51
2023-05-12T14:42:55.446Z,21.67
2023-05-12T14:45:26.736Z,21.55
2023-05-12T14:47:57.624Z,21.70
2023-05-12T14:50:28.600Z,21.50
2023-05-12T14:52:59.327Z,21.52
2023-05-12T14:55:30.046Z,21.50
2023-05-12T14:58:01.257Z,21.56
2023-05-12T15:00:33.422Z,21.62
2023-05-12T15:03:05.531Z,21.93
2023-05-12T15:05:56.967Z,21.85
2023-05-12T15:08:10.655Z,21.84
2023-05-12T15:10:41.280Z,21.87
2023-05-12T15:13:13.837Z,21.98
2023-05-12T15:15:44.401Z,21.82
2023-05-12T15:18:15.243Z,21.78
2023-05-12T15:20:46.610Z,21.85
2023-05-12T15:23:17.264Z,21.82
2023-05-12T15:25:47.787Z,21.78
2023-05-12T15:28:18.407Z,21.82
2023-05-12T15:30:58.239Z,21.84
2023-05-12T15:33:30.464Z,21.68
2023-05-12T15:36:01.272Z,21.58
2023-05-12T15:38:32.111Z,21.64
2023-05-12T15:41:02.820Z,21.61
2023-05-12T15:43:33.531Z,21.54
2023-05-12T15:46:04.616Z,21.48
2023-05-12T15:48:36.119Z,21.62
2023-05-12T15:51:06.809Z,21.72
2023-05-12T15:53:37.386Z,21.72
2023-05-12T15:56:09.017Z,21.80
2023-05-12T15:58:42.390Z,21.69
2023-05-12T16:01:13.178Z,21.72
2023-05-12T16:03:44.194Z,21.59
2023-05-12T16:06:15.016Z,21.47
2023-05-12T16:08:45.874Z,21.31
2023-05-12T16:11:16.753Z,21.27
2023-05-12T16:13:47.291Z,21.27
2023-05-12T16:16:17.936Z,21.30
2023-05-12T16:18:48.610Z,21.35
2023-05-12T16:21:20.066Z,21.26
2023-05-12T16:23:50.830Z,21.19
2023-05-12T16:26:21.399Z,21.24
2023-05-12T16:28:52.029Z,21.31
2023-05-12T16:31:22.688Z,21.25
2023-05-12T16:33:53.370Z,21.18
2023-05-12T16:36:25.712Z,21.23
2023-05-12T16:38:57.136Z,21.14
2023-05-12T16:41:28.782Z,21.12
2023-05-12T16:44:00.736Z,20.98
2023-05-12T16:46:32.837Z,21.10
2023-05-12T16:49:04.109Z,21.06
2023-05-12T16:51:35.664Z,21.04
2023-05-12T16:54:06.386Z,21.42
2023-05-12T16:56:39.931Z,22.58
2023-05-12T16:59:10.515Z,23.14
2023-05-12T17:01:41.699Z,23.00
2023-05-12T17:04:12.563Z,23.62
2023-05-12T17:06:44.637Z,24.07
2023-05-12T17:09:15.214Z,23.63
2023-05-12T17:11:45.836Z,23.13
2023-05-12T17:14:19.413Z,23.37
2023-05-12T17:16:50.303Z,23.15
2023-05-12T17:19:22.103Z,22.61
2023-05-12T17:21:52.782Z,22.50
2023-05-12T17:24:23.564Z,22.78
2023-05-12T17:26:54.902Z,22.54
2023-05-12T17:29:26.724Z,22.39
2023-05-12T17:31:57.473Z,22.60
2023-05-12T17:34:29.900Z,22.48
2023-05-12T17:37:07.712Z,22.20
2023-05-12T17:39:41.132Z,22.22
2023-05-12T17:42:11.851Z,22.44
2023-05-12T17:44:45.509Z,21.94
2023-05-12T17:47:17.089Z,21.67
2023-05-12T17:49:47.954Z,21.38
2023-05-12T17:52:19.312Z,20.88
2023-05-12T17:54:50.031Z,20.55
2023-05-12T17:57:21.899Z,20.46
2023-05-12T17:59:53.219Z,20.30
2023-05-12T18:02:25.721Z,20.17
2023-05-12T18:04:56.541Z,20.10
2023-05-12T18:07:28.814Z,20.07
2023-05-12T18:10:00.384Z,19.99
2023-05-12T18:12:31.592Z,19.93
2023-05-12T18:15:04.801Z,19.90
2023-05-12T18:17:37.019Z,19.86
2023-05-12T18:20:08.905Z,19.80
2023-05-12T18:22:39.654Z,19.72
2023-05-12T18:25:12.756Z,19.69
2023-05-12T18:27:43.411Z,19.59
2023-05-12T18:30:15.767Z,19.60
2023-05-12T18:32:46.417Z,19.53
2023-05-12T18:35:17.206Z,19.52
2023-05-12T18:37:48.058Z,19.46
2023-05-12T18:40:18.708Z,19.39
2023-05-12T18:42:50.596Z,19.34
2023-05-12T18:45:23.146Z,19.29
2023-05-12T18:47:53.845Z,19.24
2023-05-12T18:50:25.340Z,19.22
2023-05-12T18:52:57.041Z,19.16
2023-05-12T18:55:28.551Z,19.11
2023-05-12T18:58:01.150Z,19.06
2023-05-12T19:00:33.483Z,18.96
2023-05-12T19:03:04.260Z,18.93
2023-05-12T19:05:35.200Z,18.90
2023-05-12T19:08:06.207Z,18.85
2023-05-12T19:10:39.434Z,18.80
2023-05-12T19:13:09.560Z,18.74
2023-05-12T19:15:40.336Z,18.72
2023-05-12T19:18:15.519Z,18.67
2023-05-12T19:20:47.905Z,18.63
2023-05-12T19:23:20.063Z,18.60
2023-05-12T19:25:50.987Z,18.57
2023-05-12T19:28:22.008Z,18.44
2023-05-12T19:30:55.512Z,18.44
2023-05-12T19:33:27.528Z,18.38
2023-05-12T19:35:59.265Z,18.33
2023-05-12T19:38:30.526Z,18.32
2023-05-12T19:41:01.079Z,18.39
2023-05-12T19:43:31.666Z,18.30
2023-05-12T19:46:02.506Z,18.18
2023-05-12T19:48:33.116Z,18.20
2023-05-12T19:51:03.875Z,18.15
2023-05-12T19:53:34.551Z,18.12
2023-05-12T19:56:07.980Z,18.09
2023-05-12T19:58:38.863Z,18.06
2023-05-12T20:01:09.615Z,18.01
2023-05-12T20:03:40.698Z,17.94
2023-05-12T20:06:11.843Z,17.90
2023-05-12T20:08:45.586Z,17.94
2023-05-12T20:11:16.174Z,17.90
2023-05-12T20:13:46.791Z,17.89
2023-05-12T20:16:17.379Z,17.82
2023-05-12T20:18:48.031Z,17.77
2023-05-12T20:21:19.363Z,17.72
2023-05-12T20:23:51.681Z,17.69
2023-05-12T20:26:22.354Z,17.71
2023-05-12T20:28:53.329Z,17.61
2023-05-12T20:31:24.191Z,17.66
2023-05-12T20:33:58.368Z,17.53
2023-05-12T20:36:34.451Z,17.48
2023-05-12T20:39:06.547Z,17.44
2023-05-12T20:41:40.122Z,17.39
2023-05-12T20:44:10.782Z,17.39
2023-05-12T20:46:41.597Z,17.24
2023-05-12T20:49:12.992Z,17.27
2023-05-12T20:51:44.011Z,17.26
2023-05-12T20:54:14.576Z,17.24
2023-05-12T20:56:45.308Z,17.22
2023-05-12T20:59:15.897Z,17.18
2023-05-12T21:01:46.565Z,17.15
2023-05-12T21:04:18.011Z,17.15
2023-05-12T21:06:48.689Z,17.10
2023-05-12T21:09:20.203Z,17.06
2023-05-12T21:11:53.302Z,17.02
2023-05-12T21:14:25.539Z,17.06
2023-05-12T21:16:56.547Z,17.00
2023-05-12T21:19:27.256Z,16.92
2023-05-12T21:21:58.743Z,16.87
2023-05-12T21:24:29.490Z,16.88
2023-05-12T21:27:03.290Z,16.78
2023-05-12T21:29:35.181Z,16.70
2023-05-12T21:32:08.525Z,16.68
2023-05-12T21:34:38.488Z,16.66
2023-05-12T21:37:09.106Z,16.65
2023-05-12T21:39:40.370Z,16.58
2023-05-12T21:42:10.812Z,16.57
2023-05-12T21:44:41.314Z,16.52
2023-05-12T21:47:12.293Z,16.50
2023-05-12T21:49:44.870Z,16.44
2023-05-12T21:52:16.042Z,16.42
2023-05-12T21:54:48.110Z,16.45
2023-05-12T21:57:18.863Z,16.38
2023-05-12T21:59:49.872Z,16.36
2023-05-12T22:02:20.788Z,16.32
2023-05-12T22:04:52.193Z,16.34
2023-05-12T22:07:23.688Z,16.26
2023-05-12T22:09:54.218Z,16.18
2023-05-12T22:12:24.720Z,16.16
2023-05-12T22:14:55.255Z,16.16
2023-05-12T22:17:26.011Z,16.09
2023-05-12T22:19:56.524Z,16.10
2023-05-12T22:22:27.383Z,16.06
2023-05-12T22:24:59.079Z,15.95
2023-05-12T22:27:29.598Z,15.98
2023-05-12T22:30:00.198Z,15.92
2023-05-12T22:32:30.871Z,15.96
2023-05-12T22:35:01.750Z,15.96
2023-05-12T22:37:32.417Z,15.92
2023-05-12T22:40:03.869Z,15.85
2023-05-12T22:42:34.524Z,15.82
2023-05-12T22:45:05.438Z,15.82
2023-05-12T22:47:36.255Z,15.80
2023-05-12T22:50:10.581Z,15.80
2023-05-12T22:52:41.567Z,15.81
2023-05-12T22:55:12.249Z,15.76
2023-05-12T22:57:44.646Z,15.73
2023-05-12T23:00:16.109Z,15.79
2023-05-12T23:02:46.678Z,15.77
2023-05-12T23:05:17.411Z,15.74
2023-05-12T23:07:49.527Z,15.70
2023-05-12T23:10:20.552Z,15.72
2023-05-12T23:12:51.573Z,15.71
2023-05-12T23:15:22.330Z,15.65
2023-05-12T23:17:53.437Z,15.63
2023-05-12T23:20:25.233Z,15.63
2023-05-12T23:22:56.208Z,15.63
2023-05-12T23:25:26.834Z,15.64
2023-05-12T23:27:57.302Z,15.63
2023-05-12T23:30:29.636Z,15.58
2023-05-12T23:33:00.284Z,15.59
2023-05-12T23:35:31.132Z,15.54
2023-05-12T23:38:01.754Z,15.52
2023-05-12T23:40:33.493Z,15.44
2023-05-12T23:43:03.920Z,15.48
2023-05-12T23:45:35.370Z,15.46
2023-05-12T23:48:06.267Z,15.44
2023-05-12T23:50:36.925Z,15.38
2023-05-12T23:53:07.423Z,15.50
2023-05-12T23:55:38.566Z,15.39
2023-05-12T23:58:10.739Z,15.31
